Meadowview, Pennsylvania
Current Conditions -  °F | °C
As of 10:53 AM on Friday 31 Oct 2014 (Local Time) from KSEG Reporting Station
Overcast Overcast  
Wind Chill: 45°   Ceiling: 6000
Heat Index: 45°   Visibility: 10mi
Dew Point: 37°   Wind: 0mph
Humidity: 74%   Direction: NA
Pressure: 30"   Gusts: NA
Location:  40.8354°N, 76.6402°W
Report Text: KSEG 311453Z AUTO 00000KT 10SM OVC060 07/03 A3000 RMK AO2 SLP160 T00720028 58006
Loading
Personal Weather Stations






























Interactive Weather Map New forecast layout! Learn more

10-Day Weather Forecast

Advertisements
Track Severe Weather on mobile